Time;durP1;ratioP1;P1;durP2;ratioP2;P2;SDS_P1;SDS_P2;PMS_P1;PMS_P2;Temp;Humidity;BMP_temperature;BMP_pressure;BME280_temperature;BME280_humidity;BME280_pressure;Samples;Min_cycle;Max_cycle;Signal;HPM_P1;HPM_P2
2021/12/17 00:01:06;;;;;;;;;;;;;;;10.60;55.66;100773.41;4468026;31;34250;-70
2021/12/17 00:03:42;;;;;;;;;;;;;;;10.47;56.36;100768.75;4473227;32;33550;-69
2021/12/17 00:08:39;;;;;;;;;;;;;;;10.44;55.70;100781.47;4470246;32;32990;-71
2021/12/17 00:11:06;;;;;;;;;;;;;;;10.41;55.94;100779.81;4473138;32;34915;-73
2021/12/17 00:13:34;;;;;;;;;;;;;;;10.75;54.70;100791.22;4475525;32;34122;-69
2021/12/17 00:16:11;;;;;;;;;;;;;;;11.35;52.77;100790.31;4474060;32;34155;-70
2021/12/17 00:18:52;;;;;;;;;;;;;;;10.64;54.68;100785.66;4471871;32;34503;-71
2021/12/17 00:48:46;;;;;;;;;;;;;;;9.41;56.21;100780.94;4467452;31;34188;-72
2021/12/17 00:54:03;;;;;;;;;;;;;;;9.28;55.85;100786.91;4472340;31;34021;-71
2021/12/17 00:56:30;;;;;;;;;;;;;;;9.55;54.99;100784.56;4473761;32;33293;-68
2021/12/17 00:58:57;;;;;;;;;;;;;;;8.74;56.44;100782.63;4473439;32;33551;-69
2021/12/17 01:01:25;;;;;;;;;;;;;;;9.16;57.13;100784.03;4470516;31;34374;-69
2021/12/17 01:03:54;;;;;;;;;;;;;;;9.54;54.45;100776.66;4466867;32;35094;-70
2021/12/17 01:06:22;;;;;;;;;;;;;;;9.70;53.98;100777.53;4470489;31;32792;-69
2021/12/17 01:08:50;;;;;;;;;;;;;;;9.17;56.33;100778.59;4470017;32;35137;-68
2021/12/17 01:11:19;;;;;;;;;;;;;;;8.61;59.13;100772.56;4468747;31;35528;-69
2021/12/17 01:13:46;;;;;;;;;;;;;;;8.91;56.84;100752.37;4472427;32;34212;-69
2021/12/17 01:16:15;;;;;;;;;;;;;;;9.10;56.32;100754.00;4467695;32;33402;-70
2021/12/17 01:18:57;;;;;;;;;;;;;;;9.00;55.51;100755.44;4468484;32;34951;-68
2021/12/17 01:42:49;;;;;;;;;;;;;;;9.66;53.42;100751.03;4468072;32;34105;-69
2021/12/17 01:45:17;;;;;;;;;;;;;;;10.18;51.53;100740.97;4470100;32;35097;-69
2021/12/17 01:47:44;;;;;;;;;;;;;;;9.29;53.40;100750.38;4466181;32;34190;-69
2021/12/17 01:56:04;;;;;;;;;;;;;;;8.86;54.97;100728.63;4466453;32;34308;-72
2021/12/17 02:01:18;;;;;;;;;;;;;;;8.67;54.07;100711.78;4465178;32;34193;-73
2021/12/17 02:03:46;;;;;;;;;;;;;;;8.62;54.58;100702.22;4471822;32;34100;-69
2021/12/17 02:06:13;;;;;;;;;;;;;;;8.57;55.02;100708.72;4471803;32;35321;-70
2021/12/17 02:08:44;;;;;;;;;;;;;;;8.11;56.67;100717.22;4467162;32;32944;-67
2021/12/17 02:30:03;;;;;;;;;;;;;;;8.89;54.74;100700.88;4470570;32;33194;-69
2021/12/17 02:32:33;;;;;;;;;;;;;;;8.43;54.76;100709.44;4473899;32;33761;-72
2021/12/17 02:37:30;;;;;;;;;;;;;;;8.97;53.56;100731.56;4472439;31;32769;-70
2021/12/17 02:45:32;;;;;;;;;;;;;;;9.14;52.33;100744.03;4469317;32;33463;-70
2021/12/17 02:48:06;;;;;;;;;;;;;;;9.53;51.11;100750.84;4466919;32;33685;-71
2021/12/17 02:50:35;;;;;;;;;;;;;;;10.10;49.77;100755.72;4469138;32;33393;-69
2021/12/17 02:53:07;;;;;;;;;;;;;;;9.42;50.38;100750.56;4471207;31;33843;-71
2021/12/17 02:55:36;;;;;;;;;;;;;;;9.81;51.33;100742.19;4473462;32;34483;-69
2021/12/17 02:58:04;;;;;;;;;;;;;;;10.28;50.15;100745.84;4479057;32;34294;-73
2021/12/17 03:00:32;;;;;;;;;;;;;;;10.09;49.36;100735.28;4473715;32;33095;-71
2021/12/17 03:03:00;;;;;;;;;;;;;;;9.41;52.64;100733.69;4468448;32;33118;-71
2021/12/17 03:05:27;;;;;;;;;;;;;;;9.82;51.14;100733.19;4471570;32;35708;-73
2021/12/17 03:07:55;;;;;;;;;;;;;;;10.22;49.21;100725.59;4467702;32;33859;-74
2021/12/17 03:10:23;;;;;;;;;;;;;;;10.82;47.55;100719.41;4466666;32;33467;-73
2021/12/17 03:12:56;;;;;;;;;;;;;;;10.42;49.30;100717.28;4465311;32;34439;-72
2021/12/17 03:23:28;;;;;;;;;;;;;;;10.11;51.00;100712.84;4471497;32;34129;-73
2021/12/17 03:25:56;;;;;;;;;;;;;;;10.21;49.88;100713.19;4469333;32;34140;-72
2021/12/17 03:28:24;;;;;;;;;;;;;;;9.94;53.84;100716.47;4467822;32;33842;-72
2021/12/17 03:30:51;;;;;;;;;;;;;;;9.95;52.43;100728.91;4467533;31;33100;-74
2021/12/17 03:33:20;;;;;;;;;;;;;;;10.04;52.78;100732.84;4476301;32;34889;-72
2021/12/17 03:35:49;;;;;;;;;;;;;;;10.07;52.40;100732.69;4471545;32;33311;-73
2021/12/17 03:38:17;;;;;;;;;;;;;;;9.82;54.56;100741.22;4470046;32;33805;-70
2021/12/17 03:40:45;;;;;;;;;;;;;;;10.17;52.45;100749.06;4472176;32;34072;-72
2021/12/17 03:43:21;;;;;;;;;;;;;;;9.57;54.46;100739.06;4475471;32;34366;-71
2021/12/17 03:45:49;;;;;;;;;;;;;;;9.60;53.80;100732.66;4471855;32;35280;-75
2021/12/17 03:48:17;;;;;;;;;;;;;;;9.23;56.49;100735.53;4470199;32;35311;-71
2021/12/17 03:50:44;;;;;;;;;;;;;;;9.37;54.82;100736.59;4473763;32;34362;-72
2021/12/17 03:53:12;;;;;;;;;;;;;;;9.45;54.93;100731.72;4470324;32;34884;-71
2021/12/17 03:55:39;;;;;;;;;;;;;;;9.79;53.66;100726.22;4476476;32;34219;-71
2021/12/17 03:58:08;;;;;;;;;;;;;;;9.73;53.91;100715.88;4466640;32;34239;-72
2021/12/17 04:00:35;;;;;;;;;;;;;;;10.02;52.97;100716.91;4477326;32;33405;-71
2021/12/17 04:03:03;;;;;;;;;;;;;;;10.51;51.19;100717.72;4470719;32;31696;-71
2021/12/17 04:05:31;;;;;;;;;;;;;;;10.06;52.46;100714.06;4470515;32;32617;-71
2021/12/17 04:08:09;;;;;;;;;;;;;;;10.44;51.36;100730.59;4470587;32;34727;-71
2021/12/17 04:10:47;;;;;;;;;;;;;;;10.29;50.71;100727.00;4473855;31;32501;-72
2021/12/17 04:16:02;;;;;;;;;;;;;;;10.11;51.98;100731.56;4473076;32;33023;-74
2021/12/17 04:18:29;;;;;;;;;;;;;;;9.97;53.47;100736.84;4475302;32;32626;-70
2021/12/17 04:20:59;;;;;;;;;;;;;;;10.45;51.30;100741.22;4471152;31;33397;-74
2021/12/17 04:23:26;;;;;;;;;;;;;;;9.98;52.68;100754.59;4466976;32;34033;-74
2021/12/17 04:25:53;;;;;;;;;;;;;;;10.23;51.62;100746.03;4472033;32;33389;-71
2021/12/17 04:28:21;;;;;;;;;;;;;;;9.88;52.76;100746.22;4474879;32;34962;-75
2021/12/17 04:30:49;;;;;;;;;;;;;;;10.14;50.97;100755.44;4466488;32;33533;-77
2021/12/17 04:33:17;;;;;;;;;;;;;;;10.87;49.17;100762.84;4473852;32;35222;-72
2021/12/17 04:35:44;;;;;;;;;;;;;;;10.71;49.77;100757.56;4467956;32;34365;-75
2021/12/17 04:38:14;;;;;;;;;;;;;;;10.77;49.46;100769.72;4471904;32;32798;-76
2021/12/17 04:40:43;;;;;;;;;;;;;;;10.24;51.37;100771.84;4470776;32;33447;-76
2021/12/17 04:43:35;;;;;;;;;;;;;;;11.27;48.11;100780.06;4472790;31;34276;-73
2021/12/17 04:46:23;;;;;;;;;;;;;;;11.39;47.33;100773.94;4469499;32;33776;-73
2021/12/17 04:57:29;;;;;;;;;;;;;;;10.19;50.36;100757.88;4470881;32;34457;-76
2021/12/17 04:59:59;;;;;;;;;;;;;;;11.32;47.37;100758.34;4469299;31;33921;-72
2021/12/17 05:02:27;;;;;;;;;;;;;;;10.11;50.51;100749.41;4472496;32;32600;-73
2021/12/17 05:04:55;;;;;;;;;;;;;;;10.30;50.05;100741.22;4465440;32;33991;-72
2021/12/17 05:07:25;;;;;;;;;;;;;;;10.55;49.73;100738.84;4478964;32;34304;-72
2021/12/17 05:18:23;;;;;;;;;;;;;;;9.44;52.48;100724.66;4466326;32;35120;-74
2021/12/17 05:21:01;;;;;;;;;;;;;;;9.36;54.29;100709.00;4471326;32;32283;-75
2021/12/17 05:23:33;;;;;;;;;;;;;;;9.69;52.64;100710.78;4469378;32;34169;-74
2021/12/17 05:26:03;;;;;;;;;;;;;;;9.23;54.04;100691.94;4472672;32;34799;-69
2021/12/17 05:28:32;;;;;;;;;;;;;;;9.31;53.75;100693.25;4465992;32;35510;-78
2021/12/17 05:31:00;;;;;;;;;;;;;;;9.21;54.70;100694.69;4468518;31;34182;-77
2021/12/17 05:33:28;;;;;;;;;;;;;;;9.30;53.47;100682.62;4478158;32;33373;-75
2021/12/17 05:35:59;;;;;;;;;;;;;;;8.78;55.03;100696.09;4471934;31;33761;-81
2021/12/17 05:38:27;;;;;;;;;;;;;;;8.87;55.27;100695.63;4475964;32;33726;-76
2021/12/17 05:40:56;;;;;;;;;;;;;;;8.42;56.87;100694.37;4465921;32;32893;-75
2021/12/17 05:43:24;;;;;;;;;;;;;;;8.30;57.38;100692.31;4475665;32;33463;-75
2021/12/17 05:48:25;;;;;;;;;;;;;;;8.55;56.33;100699.97;4475743;31;34996;-77
2021/12/17 05:50:55;;;;;;;;;;;;;;;8.83;54.53;100705.59;4472057;32;34245;-77
2021/12/17 05:53:23;;;;;;;;;;;;;;;8.61;55.51;100716.53;4472845;32;32403;-76
2021/12/17 05:55:51;;;;;;;;;;;;;;;9.22;54.53;100711.59;4475637;32;34178;-75
2021/12/17 05:58:18;;;;;;;;;;;;;;;8.84;55.15;100726.00;4475240;32;35292;-74
2021/12/17 06:00:46;;;;;;;;;;;;;;;9.59;52.18;100714.91;4472469;32;34064;-75
2021/12/17 06:03:20;;;;;;;;;;;;;;;9.16;54.25;100709.25;4473878;32;32072;-76
2021/12/17 06:05:48;;;;;;;;;;;;;;;8.22;56.84;100702.47;4475941;32;32849;-76
2021/12/17 06:08:15;;;;;;;;;;;;;;;8.62;55.76;100702.22;4481493;32;33969;-77
2021/12/17 06:10:43;;;;;;;;;;;;;;;7.69;58.27;100699.69;4471002;32;34452;-75
2021/12/17 06:13:11;;;;;;;;;;;;;;;7.50;58.74;100697.97;4476171;32;32580;-75
2021/12/17 06:15:38;;;;;;;;;;;;;;;8.05;57.73;100703.31;4472977;32;33138;-75
2021/12/17 06:18:06;;;;;;;;;;;;;;;7.89;57.93;100716.53;4468520;32;35584;-76
2021/12/17 06:20:33;;;;;;;;;;;;;;;8.53;56.73;100729.38;4471311;31;35114;-77
2021/12/17 06:23:01;;;;;;;;;;;;;;;8.05;57.25;100717.50;4476345;32;32137;-74
2021/12/17 06:25:28;;;;;;;;;;;;;;;8.40;55.67;100729.13;4469046;32;34400;-76
2021/12/17 06:27:56;;;;;;;;;;;;;;;8.24;56.67;100719.28;4469990;32;34164;-75
2021/12/17 06:30:25;;;;;;;;;;;;;;;9.07;53.99;100711.44;4476397;32;32650;-75
2021/12/17 06:32:53;;;;;;;;;;;;;;;8.69;54.38;100723.25;4473191;32;33737;-76
2021/12/17 06:35:20;;;;;;;;;;;;;;;8.87;54.00;100727.66;4472667;32;33594;-73
2021/12/17 06:37:48;;;;;;;;;;;;;;;9.09;53.95;100727.41;4467003;32;34466;-76
2021/12/17 06:40:16;;;;;;;;;;;;;;;8.98;54.10;100733.28;4465880;32;32686;-75
2021/12/17 06:42:45;;;;;;;;;;;;;;;9.47;52.51;100732.47;4463671;32;33285;-74
2021/12/17 06:45:25;;;;;;;;;;;;;;;9.53;52.45;100743.72;4474874;32;34163;-78
2021/12/17 06:47:57;;;;;;;;;;;;;;;9.55;52.36;100744.47;4473327;31;32944;-76
2021/12/17 07:05:56;;;;;;;;;;;;;;;10.82;48.17;100749.75;4473976;32;33009;-77
2021/12/17 07:08:18;;;;;;;;;;;;;;;11.99;44.85;100734.47;4472772;32;33636;-74
2021/12/17 07:10:29;;;;;;;;;;;;;;;13.20;41.66;100739.75;4472866;31;33269;-73
2021/12/17 07:24:35;;;;;;;;;;;;;;;11.35;47.25;100768.87;4476791;32;34150;-76
2021/12/17 07:35:36;;;;;;;;;;;;;;;13.42;41.05;100777.62;4461814;32;34078;-74
2021/12/17 07:40:46;;;;;;;;;;;;;;;14.21;39.23;100807.84;4468190;32;35361;-72
2021/12/17 07:43:23;;;;;;;;;;;;;;;14.26;38.70;100807.53;4474095;32;33408;-78
2021/12/17 07:45:51;;;;;;;;;;;;;;;14.37;38.53;100804.91;4470971;32;33889;-75
2021/12/17 07:48:20;;;;;;;;;;;;;;;13.42;40.35;100809.91;4471969;32;33943;-77
2021/12/17 07:50:48;;;;;;;;;;;;;;;13.54;40.55;100813.53;4470332;32;33018;-76
2021/12/17 07:53:17;;;;;;;;;;;;;;;12.73;43.54;100801.12;4473224;32;34131;-74
2021/12/17 07:55:46;;;;;;;;;;;;;;;14.07;40.41;100808.00;4472607;32;33937;-76
2021/12/17 07:58:14;;;;;;;;;;;;;;;14.32;39.02;100821.41;4472388;31;33091;-76
2021/12/17 08:00:41;;;;;;;;;;;;;;;14.39;40.20;100832.59;4472190;32;33652;-78
2021/12/17 08:03:11;;;;;;;;;;;;;;;16.12;35.60;100813.03;4473630;32;34237;-77
2021/12/17 08:05:42;;;;;;;;;;;;;;;16.93;33.98;100800.91;4473624;32;35055;-76
2021/12/17 08:08:10;;;;;;;;;;;;;;;16.34;34.85;100804.88;4473235;32;31707;-75
2021/12/17 08:10:38;;;;;;;;;;;;;;;14.68;37.28;100803.50;4470734;32;34242;-74
2021/12/17 08:13:08;;;;;;;;;;;;;;;14.97;37.03;100813.94;4478202;32;33972;-74
2021/12/17 08:15:44;;;;;;;;;;;;;;;13.69;39.21;100820.53;4469088;32;34213;-72
2021/12/17 08:26:56;;;;;;;;;;;;;;;14.01;39.89;100809.31;4471632;32;34625;-77
2021/12/17 08:31:53;;;;;;;;;;;;;;;15.72;35.70;100821.59;4469181;32;35071;-75
2021/12/17 08:34:21;;;;;;;;;;;;;;;15.31;37.24;100823.84;4476174;32;34146;-75
2021/12/17 08:36:49;;;;;;;;;;;;;;;14.55;37.54;100825.12;4469787;32;34969;-75
2021/12/17 08:39:17;;;;;;;;;;;;;;;15.02;37.08;100828.75;4469253;32;32704;-78
2021/12/17 08:41:49;;;;;;;;;;;;;;;15.56;36.57;100828.16;4471922;31;33914;-76
2021/12/17 08:44:17;;;;;;;;;;;;;;;14.97;37.17;100825.56;4474514;32;34239;-76
2021/12/17 08:46:47;;;;;;;;;;;;;;;14.05;38.97;100831.47;4474478;31;34119;-76
2021/12/17 08:49:15;;;;;;;;;;;;;;;14.10;38.81;100827.50;4473640;32;34508;-77
2021/12/17 08:51:43;;;;;;;;;;;;;;;14.20;39.21;100827.69;4462579;32;34511;-75
2021/12/17 08:54:11;;;;;;;;;;;;;;;13.54;41.63;100824.31;4473613;32;34229;-72
2021/12/17 08:56:46;;;;;;;;;;;;;;;13.86;41.03;100821.16;4475122;32;34234;-75
2021/12/17 08:59:16;;;;;;;;;;;;;;;14.95;38.55;100819.41;4474696;32;34862;-72
2021/12/17 09:01:46;;;;;;;;;;;;;;;14.26;38.94;100813.78;4484112;32;35365;-75
2021/12/17 09:04:15;;;;;;;;;;;;;;;14.61;37.97;100813.91;4470614;32;35300;-75
2021/12/17 09:06:44;;;;;;;;;;;;;;;14.93;38.05;100829.47;4473756;32;35000;-75
2021/12/17 09:09:11;;;;;;;;;;;;;;;16.39;34.48;100824.25;4468313;32;32171;-78
2021/12/17 09:11:39;;;;;;;;;;;;;;;16.41;34.89;100816.03;4474519;32;34336;-76
2021/12/17 09:14:08;;;;;;;;;;;;;;;16.65;33.80;100823.94;4471435;32;35454;-75
2021/12/17 09:16:36;;;;;;;;;;;;;;;15.71;35.62;100825.28;4472125;32;35390;-77
2021/12/17 09:19:05;;;;;;;;;;;;;;;16.39;34.68;100820.69;4470561;32;33170;-75
2021/12/17 09:21:33;;;;;;;;;;;;;;;16.69;34.89;100814.59;4476797;32;34159;-76
2021/12/17 09:24:01;;;;;;;;;;;;;;;17.99;32.00;100816.09;4474581;32;35792;-74
2021/12/17 09:26:29;;;;;;;;;;;;;;;17.40;32.30;100813.06;4467990;32;35161;-76
2021/12/17 09:28:57;;;;;;;;;;;;;;;17.10;34.13;100811.13;4467085;32;33484;-77
2021/12/17 09:31:25;;;;;;;;;;;;;;;18.12;31.86;100812.16;4448145;32;817003;-78
2021/12/17 09:33:52;;;;;;;;;;;;;;;17.14;33.56;100798.19;4475105;32;34195;-77
2021/12/17 09:36:19;;;;;;;;;;;;;;;17.06;33.67;100795.31;4474914;32;34124;-74
2021/12/17 09:38:49;;;;;;;;;;;;;;;16.95;33.44;100798.91;4475321;32;33166;-76
2021/12/17 09:41:22;;;;;;;;;;;;;;;16.70;33.72;100794.69;4473959;32;35202;-75
2021/12/17 09:43:49;;;;;;;;;;;;;;;16.39;34.39;100777.47;4471640;32;34266;-77
2021/12/17 09:46:17;;;;;;;;;;;;;;;16.46;33.98;100779.53;4471641;32;35003;-76
2021/12/17 09:48:45;;;;;;;;;;;;;;;16.51;33.91;100766.50;4470486;32;32231;-77
2021/12/17 09:51:14;;;;;;;;;;;;;;;17.50;33.13;100777.09;4478664;32;34061;-77
2021/12/17 09:53:42;;;;;;;;;;;;;;;18.08;31.62;100778.22;4471587;32;33824;-75
2021/12/17 09:56:09;;;;;;;;;;;;;;;16.80;33.69;100790.25;4473385;32;33971;-76
2021/12/17 09:58:36;;;;;;;;;;;;;;;17.55;31.96;100785.63;4474361;32;33736;-77
2021/12/17 10:01:04;;;;;;;;;;;;;;;16.39;33.91;100786.44;4468781;32;34186;-77
2021/12/17 10:03:33;;;;;;;;;;;;;;;17.44;32.27;100798.28;4471330;32;34348;-76
2021/12/17 10:06:01;;;;;;;;;;;;;;;17.82;31.79;100790.53;4474981;32;35315;-75
2021/12/17 10:08:28;;;;;;;;;;;;;;;16.05;35.13;100793.72;4465684;32;32906;-75
2021/12/17 10:10:57;;;;;;;;;;;;;;;14.98;36.55;100794.94;4475989;32;32944;-77
2021/12/17 10:13:31;;;;;;;;;;;;;;;16.14;35.08;100781.31;4473491;32;34080;-74
2021/12/17 10:16:06;;;;;;;;;;;;;;;17.46;33.29;100790.88;4471550;32;35017;-74
2021/12/17 10:18:40;;;;;;;;;;;;;;;19.13;30.31;100791.16;4473602;32;33318;-78
2021/12/17 10:21:11;;;;;;;;;;;;;;;18.77;30.10;100790.91;4468569;32;34091;-75
2021/12/17 10:23:42;;;;;;;;;;;;;;;17.18;32.33;100778.03;4474531;32;34332;-72
2021/12/17 10:26:11;;;;;;;;;;;;;;;17.99;31.47;100775.47;4469266;32;34966;-70
2021/12/17 10:28:38;;;;;;;;;;;;;;;18.95;29.53;100782.91;4480860;32;34322;-72
2021/12/17 10:31:08;;;;;;;;;;;;;;;18.58;29.40;100778.16;4474311;32;34907;-73
2021/12/17 10:33:36;;;;;;;;;;;;;;;19.39;28.69;100779.69;4474408;32;35314;-71
2021/12/17 10:36:04;;;;;;;;;;;;;;;19.49;28.75;100777.84;4473877;32;34042;-73
2021/12/17 10:38:31;;;;;;;;;;;;;;;17.35;31.73;100768.44;4481366;32;35274;-71
2021/12/17 10:41:06;;;;;;;;;;;;;;;15.71;35.63;100765.91;4477049;32;34177;-71
2021/12/17 10:43:38;;;;;;;;;;;;;;;15.83;34.55;100763.09;4474880;32;34183;-76
2021/12/17 10:46:21;;;;;;;;;;;;;;;16.47;34.15;100743.44;4475130;32;34294;-75
2021/12/17 10:48:55;;;;;;;;;;;;;;;15.44;35.88;100750.03;4475926;32;33470;-73
2021/12/17 10:54:03;;;;;;;;;;;;;;;14.63;37.02;100760.72;4479175;32;34353;-75
2021/12/17 10:56:32;;;;;;;;;;;;;;;15.30;35.57;100762.75;4469395;32;35072;-73
2021/12/17 10:59:13;;;;;;;;;;;;;;;17.12;33.20;100762.31;4469024;32;33204;-74
2021/12/17 11:01:42;;;;;;;;;;;;;;;16.81;33.64;100759.53;4477195;32;34960;-74
2021/12/17 11:04:10;;;;;;;;;;;;;;;15.58;35.18;100756.06;4474473;32;35374;-72
2021/12/17 11:06:45;;;;;;;;;;;;;;;15.98;34.70;100744.75;4478328;32;34049;-69
2021/12/17 11:09:21;;;;;;;;;;;;;;;17.51;32.49;100736.34;4475869;32;33336;-73
2021/12/17 11:11:50;;;;;;;;;;;;;;;16.80;32.24;100738.91;4473568;32;34070;-75
2021/12/17 11:14:18;;;;;;;;;;;;;;;16.80;33.01;100746.16;4474556;32;34101;-73
2021/12/17 11:16:45;;;;;;;;;;;;;;;16.06;34.58;100739.59;4468969;32;32960;-73
2021/12/17 11:19:13;;;;;;;;;;;;;;;15.92;34.41;100734.50;4472938;32;33458;-76
2021/12/17 11:21:40;;;;;;;;;;;;;;;16.65;33.04;100735.59;4467937;32;34476;-72
2021/12/17 11:24:08;;;;;;;;;;;;;;;16.88;32.82;100736.38;4470981;32;34068;-71
2021/12/17 11:26:35;;;;;;;;;;;;;;;16.11;34.53;100732.97;4468337;32;33220;-74
2021/12/17 11:29:04;;;;;;;;;;;;;;;15.00;35.90;100735.50;4475440;32;32872;-75
2021/12/17 11:31:32;;;;;;;;;;;;;;;14.40;37.79;100731.94;4468450;32;33926;-71
2021/12/17 11:34:00;;;;;;;;;;;;;;;13.29;39.46;100741.81;4477292;32;34916;-73
2021/12/17 11:36:28;;;;;;;;;;;;;;;13.30;39.95;100740.00;4474233;32;33908;-71
2021/12/17 11:39:16;;;;;;;;;;;;;;;12.17;42.13;100738.66;4473265;32;32984;-72
2021/12/17 11:41:50;;;;;;;;;;;;;;;12.15;42.32;100745.06;4477387;32;33994;-71
2021/12/17 11:44:19;;;;;;;;;;;;;;;12.02;43.34;100742.31;4471587;32;34215;-70
2021/12/17 11:47:03;;;;;;;;;;;;;;;11.49;44.22;100746.56;4467694;32;32451;-71
2021/12/17 11:49:35;;;;;;;;;;;;;;;11.19;44.53;100736.78;4467270;32;34024;-71
2021/12/17 11:52:03;;;;;;;;;;;;;;;11.86;45.24;100727.22;4467545;32;34303;-70
2021/12/17 11:54:31;;;;;;;;;;;;;;;11.06;46.42;100741.19;4468037;32;34007;-70
2021/12/17 11:57:05;;;;;;;;;;;;;;;11.37;45.61;100732.13;4469807;32;34712;-75
2021/12/17 11:59:35;;;;;;;;;;;;;;;11.32;45.34;100729.72;4467197;32;32895;-74
2021/12/17 12:02:11;;;;;;;;;;;;;;;11.45;45.34;100743.22;4472462;32;34334;-72
2021/12/17 12:04:40;;;;;;;;;;;;;;;11.39;45.17;100749.81;4473036;32;34717;-72
2021/12/17 12:07:13;;;;;;;;;;;;;;;11.57;43.75;100742.44;4473851;32;33907;-71
2021/12/17 12:09:56;;;;;;;;;;;;;;;11.27;45.58;100750.59;4470157;32;34307;-73
2021/12/17 12:12:23;;;;;;;;;;;;;;;11.87;43.74;100742.34;4470254;32;34202;-75
2021/12/17 12:14:51;;;;;;;;;;;;;;;11.73;43.80;100749.53;4474604;32;35414;-72
2021/12/17 12:17:37;;;;;;;;;;;;;;;11.56;45.40;100751.47;4475449;32;34087;-73
2021/12/17 12:20:05;;;;;;;;;;;;;;;11.66;45.80;100759.78;4472222;32;35344;-72
2021/12/17 12:22:32;;;;;;;;;;;;;;;11.91;43.28;100753.75;4469620;32;33860;-73
2021/12/17 12:25:18;;;;;;;;;;;;;;;12.23;44.25;100748.09;4473021;32;34369;-72
2021/12/17 12:27:46;;;;;;;;;;;;;;;12.31;41.98;100752.00;4474838;32;33907;-71
2021/12/17 12:30:14;;;;;;;;;;;;;;;12.08;43.61;100764.25;4469897;32;31977;-72
2021/12/17 12:33:03;;;;;;;;;;;;;;;11.94;43.66;100750.00;4467253;32;34664;-71
2021/12/17 12:35:31;;;;;;;;;;;;;;;12.90;41.24;100750.78;4475762;32;34459;-73
2021/12/17 12:38:11;;;;;;;;;;;;;;;12.87;40.76;100741.09;4468295;32;32898;-72
2021/12/17 12:40:44;;;;;;;;;;;;;;;11.95;42.48;100738.31;4467085;32;32421;-76
2021/12/17 12:43:25;;;;;;;;;;;;;;;12.13;44.20;100737.09;4473237;32;35018;-74
2021/12/17 12:45:53;;;;;;;;;;;;;;;12.44;42.12;100741.31;4468863;32;34260;-74
2021/12/17 12:48:33;;;;;;;;;;;;;;;12.05;42.96;100745.66;4472933;32;34793;-73
2021/12/17 12:51:34;;;;;;;;;;;;;;;12.62;42.49;100743.75;4478343;32;33215;-73
2021/12/17 12:54:02;;;;;;;;;;;;;;;12.25;42.44;100748.87;4456442;32;36625;-72
2021/12/17 12:56:30;;;;;;;;;;;;;;;11.83;42.94;100743.47;4476828;32;33694;-73
2021/12/17 12:58:58;;;;;;;;;;;;;;;11.97;43.80;100752.47;4470104;32;34697;-73
2021/12/17 13:01:25;;;;;;;;;;;;;;;12.87;41.52;100751.84;4469714;32;32306;-73
2021/12/17 13:03:53;;;;;;;;;;;;;;;12.96;41.10;100755.72;4472759;32;34340;-72
2021/12/17 13:06:22;;;;;;;;;;;;;;;12.38;43.53;100746.22;4465231;32;34031;-75
2021/12/17 13:08:53;;;;;;;;;;;;;;;12.03;43.58;100746.72;4468412;32;33865;-75
2021/12/17 13:11:22;;;;;;;;;;;;;;;12.31;42.76;100748.47;4464889;32;33372;-74
2021/12/17 13:13:54;;;;;;;;;;;;;;;12.22;43.05;100749.06;4466022;32;35196;-75
2021/12/17 13:16:35;;;;;;;;;;;;;;;12.30;44.71;100754.81;4470407;32;34117;-75
2021/12/17 13:24:28;;;;;;;;;;;;;;;12.31;42.62;100751.16;4483365;32;34131;-75
2021/12/17 13:26:57;;;;;;;;;;;;;;;11.74;44.47;100738.69;4470988;32;33468;-74
2021/12/17 13:29:30;;;;;;;;;;;;;;;11.66;44.34;100744.56;4468141;32;34223;-73
2021/12/17 13:32:01;;;;;;;;;;;;;;;12.45;42.27;100740.34;4475542;32;32907;-73
2021/12/17 13:34:42;;;;;;;;;;;;;;;13.24;40.46;100744.81;4475721;32;34278;-71
2021/12/17 13:37:11;;;;;;;;;;;;;;;13.00;40.29;100744.69;4458389;32;35127;-74
2021/12/17 13:39:38;;;;;;;;;;;;;;;12.20;42.55;100748.28;4466135;32;35042;-74
2021/12/17 13:42:06;;;;;;;;;;;;;;;12.53;41.96;100751.44;4473750;32;33500;-72
2021/12/17 13:44:34;;;;;;;;;;;;;;;12.58;41.56;100746.63;4477754;32;35185;-75
2021/12/17 13:47:07;;;;;;;;;;;;;;;12.64;40.78;100737.28;4466458;32;33386;-75
2021/12/17 13:49:35;;;;;;;;;;;;;;;12.47;42.01;100748.31;4466340;32;34263;-73
2021/12/17 13:52:03;;;;;;;;;;;;;;;12.69;41.76;100747.72;4464921;32;32990;-71
2021/12/17 13:54:31;;;;;;;;;;;;;;;12.76;42.27;100770.53;4470378;32;33938;-75
2021/12/17 13:56:59;;;;;;;;;;;;;;;12.48;42.68;100758.94;4467658;32;34036;-73
2021/12/17 13:59:27;;;;;;;;;;;;;;;12.32;40.89;100763.59;4467126;32;31173;-73
2021/12/17 14:01:54;;;;;;;;;;;;;;;11.50;43.03;100769.75;4466625;32;31979;-74
2021/12/17 14:04:22;;;;;;;;;;;;;;;11.88;43.47;100768.22;4474351;32;33677;-73
2021/12/17 14:06:53;;;;;;;;;;;;;;;12.17;41.54;100765.47;4475837;32;34162;-77
2021/12/17 14:09:21;;;;;;;;;;;;;;;12.63;40.72;100777.69;4466024;32;32898;-73
2021/12/17 14:11:49;;;;;;;;;;;;;;;12.83;40.04;100783.44;4474097;32;33471;-74
2021/12/17 14:14:36;;;;;;;;;;;;;;;13.25;39.25;100770.72;4468221;32;33667;-73
2021/12/17 14:17:05;;;;;;;;;;;;;;;12.77;40.34;100773.09;4469818;32;34099;-73
2021/12/17 14:19:35;;;;;;;;;;;;;;;12.15;41.15;100761.16;4475250;32;33706;-72
2021/12/17 14:22:17;;;;;;;;;;;;;;;13.16;39.73;100762.41;4471833;32;33031;-73
2021/12/17 14:24:45;;;;;;;;;;;;;;;13.49;38.56;100761.94;4468381;32;34716;-76
2021/12/17 14:27:12;;;;;;;;;;;;;;;13.16;39.08;100755.22;4468239;32;34132;-74
2021/12/17 14:29:40;;;;;;;;;;;;;;;13.58;38.70;100758.59;4478641;32;33507;-76
2021/12/17 14:32:07;;;;;;;;;;;;;;;12.92;39.51;100756.91;4479519;32;33072;-75
2021/12/17 14:34:41;;;;;;;;;;;;;;;13.95;37.88;100748.69;4471100;32;34196;-78
2021/12/17 14:37:09;;;;;;;;;;;;;;;13.92;38.01;100745.37;4470781;32;33756;-73
2021/12/17 14:39:40;;;;;;;;;;;;;;;14.33;36.40;100755.78;4473545;32;33842;-73
2021/12/17 14:42:10;;;;;;;;;;;;;;;14.07;37.37;100749.66;4478129;32;31786;-73
2021/12/17 14:44:49;;;;;;;;;;;;;;;14.14;36.29;100747.34;4469897;32;32583;-73
2021/12/17 14:47:37;;;;;;;;;;;;;;;13.53;37.90;100749.97;4467503;32;34178;-72
2021/12/17 15:00:56;;;;;;;;;;;;;;;13.93;38.00;100747.97;4469026;32;33423;-74
2021/12/17 15:03:29;;;;;;;;;;;;;;;13.72;37.77;100744.12;4470023;32;31902;-71
2021/12/17 15:06:01;;;;;;;;;;;;;;;13.87;37.81;100740.34;4472258;32;32576;-73
2021/12/17 15:08:29;;;;;;;;;;;;;;;13.70;37.74;100741.53;4469576;32;34344;-71
2021/12/17 15:10:57;;;;;;;;;;;;;;;12.95;38.73;100729.81;4466888;32;32409;-72
2021/12/17 15:13:24;;;;;;;;;;;;;;;13.15;38.66;100736.50;4472394;32;33165;-72
2021/12/17 15:15:57;;;;;;;;;;;;;;;12.57;41.09;100731.47;4475761;32;33926;-71
2021/12/17 15:18:24;;;;;;;;;;;;;;;12.55;40.26;100732.53;4472401;32;31785;-72
2021/12/17 15:20:52;;;;;;;;;;;;;;;11.33;43.24;100731.47;4470038;32;33596;-74
2021/12/17 15:23:20;;;;;;;;;;;;;;;11.60;44.12;100725.31;4466705;32;33360;-72
2021/12/17 15:25:48;;;;;;;;;;;;;;;10.91;43.85;100737.59;4472277;32;33342;-75
2021/12/17 15:28:16;;;;;;;;;;;;;;;11.33;43.09;100739.50;4469893;32;33695;-72
2021/12/17 15:30:45;;;;;;;;;;;;;;;11.32;44.46;100736.91;4470569;32;33096;-72
2021/12/17 15:33:13;;;;;;;;;;;;;;;11.87;42.67;100728.91;4470705;32;34315;-72
2021/12/17 15:35:42;;;;;;;;;;;;;;;11.35;43.50;100734.88;4477581;32;34089;-72
2021/12/17 15:38:10;;;;;;;;;;;;;;;11.53;42.47;100737.38;4466768;32;34241;-72
2021/12/17 15:40:38;;;;;;;;;;;;;;;12.05;41.95;100744.81;4482187;31;34085;-72
2021/12/17 15:43:06;;;;;;;;;;;;;;;11.88;41.40;100732.50;4469515;32;34151;-71
2021/12/17 15:45:36;;;;;;;;;;;;;;;12.03;40.98;100736.84;4469368;32;34350;-73
2021/12/17 15:48:04;;;;;;;;;;;;;;;11.84;41.25;100737.16;4468376;32;35940;-72
2021/12/17 15:50:52;;;;;;;;;;;;;;;11.71;42.00;100741.56;4476228;32;33186;-72
2021/12/17 15:53:19;;;;;;;;;;;;;;;11.80;41.85;100732.94;4471465;32;31773;-74
2021/12/17 15:55:47;;;;;;;;;;;;;;;11.25;43.28;100738.25;4471617;32;32642;-71
2021/12/17 15:58:14;;;;;;;;;;;;;;;11.31;43.01;100730.69;4468096;32;35358;-70
2021/12/17 16:00:47;;;;;;;;;;;;;;;11.61;41.59;100732.37;4472254;32;33972;-73